sensor_id;sensor_type;location;lat;lon;timestamp;P1;durP1;ratioP1;P2;durP2;ratioP2
31061;SDS011;17724;53.546;9.974;2022-11-18T00:00:20;17.27;;;11.10;;
31061;SDS011;17724;53.546;9.974;2022-11-18T00:04:40;18.30;;;10.97;;
31061;SDS011;17724;53.546;9.974;2022-11-18T00:09:01;18.27;;;11.43;;
31061;SDS011;17724;53.546;9.974;2022-11-18T00:13:22;20.17;;;11.67;;
31061;SDS011;17724;53.546;9.974;2022-11-18T00:18:01;19.00;;;12.00;;
31061;SDS011;17724;53.546;9.974;2022-11-18T00:22:22;19.87;;;12.03;;
31061;SDS011;17724;53.546;9.974;2022-11-18T00:26:43;20.63;;;12.67;;
31061;SDS011;17724;53.546;9.974;2022-11-18T00:31:07;18.27;;;11.77;;
31061;SDS011;17724;53.546;9.974;2022-11-18T00:35:30;19.50;;;12.33;;
31061;SDS011;17724;53.546;9.974;2022-11-18T00:39:51;20.70;;;12.87;;
31061;SDS011;17724;53.546;9.974;2022-11-18T00:44:12;19.30;;;11.40;;
31061;SDS011;17724;53.546;9.974;2022-11-18T00:48:32;21.07;;;13.17;;
31061;SDS011;17724;53.546;9.974;2022-11-18T00:52:53;19.90;;;13.07;;
31061;SDS011;17724;53.546;9.974;2022-11-18T00:57:14;20.63;;;12.70;;
31061;SDS011;17724;53.546;9.974;2022-11-18T01:01:34;20.13;;;12.90;;
31061;SDS011;17724;53.546;9.974;2022-11-18T01:05:56;20.37;;;13.43;;
31061;SDS011;17724;53.546;9.974;2022-11-18T01:10:17;20.00;;;12.43;;
31061;SDS011;17724;53.546;9.974;2022-11-18T01:14:37;18.27;;;11.83;;
31061;SDS011;17724;53.546;9.974;2022-11-18T01:18:58;19.43;;;12.53;;
31061;SDS011;17724;53.546;9.974;2022-11-18T01:23:19;20.33;;;14.00;;
31061;SDS011;17724;53.546;9.974;2022-11-18T01:27:40;20.53;;;12.93;;
31061;SDS011;17724;53.546;9.974;2022-11-18T01:32:00;21.50;;;13.50;;
31061;SDS011;17724;53.546;9.974;2022-11-18T01:36:22;20.20;;;13.40;;
31061;SDS011;17724;53.546;9.974;2022-11-18T01:40:44;20.60;;;12.90;;
31061;SDS011;17724;53.546;9.974;2022-11-18T01:49:28;21.77;;;13.07;;
31061;SDS011;17724;53.546;9.974;2022-11-18T01:53:55;19.90;;;12.33;;
31061;SDS011;17724;53.546;9.974;2022-11-18T01:58:26;21.40;;;13.20;;
31061;SDS011;17724;53.546;9.974;2022-11-18T02:02:55;22.30;;;14.60;;
31061;SDS011;17724;53.546;9.974;2022-11-18T02:07:17;22.97;;;14.37;;
31061;SDS011;17724;53.546;9.974;2022-11-18T02:11:39;22.63;;;15.00;;
31061;SDS011;17724;53.546;9.974;2022-11-18T02:16:13;24.33;;;15.00;;
31061;SDS011;17724;53.546;9.974;2022-11-18T02:20:41;25.10;;;16.00;;
31061;SDS011;17724;53.546;9.974;2022-11-18T02:29:31;24.13;;;15.20;;
31061;SDS011;17724;53.546;9.974;2022-11-18T02:38:44;23.37;;;16.63;;
31061;SDS011;17724;53.546;9.974;2022-11-18T02:43:14;25.00;;;15.60;;
31061;SDS011;17724;53.546;9.974;2022-11-18T02:47:39;24.63;;;16.50;;
31061;SDS011;17724;53.546;9.974;2022-11-18T02:52:04;23.43;;;15.97;;
31061;SDS011;17724;53.546;9.974;2022-11-18T02:56:28;25.47;;;16.80;;
31061;SDS011;17724;53.546;9.974;2022-11-18T03:00:53;22.60;;;15.67;;
31061;SDS011;17724;53.546;9.974;2022-11-18T03:05:58;25.13;;;16.10;;
31061;SDS011;17724;53.546;9.974;2022-11-18T03:10:08;24.50;;;14.73;;
31061;SDS011;17724;53.546;9.974;2022-11-18T03:33:04;23.73;;;16.83;;
31061;SDS011;17724;53.546;9.974;2022-11-18T03:37:29;25.20;;;16.23;;
31061;SDS011;17724;53.546;9.974;2022-11-18T03:46:33;24.47;;;16.30;;
31061;SDS011;17724;53.546;9.974;2022-11-18T03:51:00;23.33;;;15.50;;
31061;SDS011;17724;53.546;9.974;2022-11-18T03:55:29;22.47;;;15.40;;
31061;SDS011;17724;53.546;9.974;2022-11-18T03:59:58;20.37;;;13.90;;
31061;SDS011;17724;53.546;9.974;2022-11-18T04:04:25;22.23;;;15.27;;
31061;SDS011;17724;53.546;9.974;2022-11-18T04:08:48;21.93;;;14.63;;
31061;SDS011;17724;53.546;9.974;2022-11-18T04:13:21;19.87;;;12.67;;
31061;SDS011;17724;53.546;9.974;2022-11-18T04:17:46;21.30;;;13.43;;
31061;SDS011;17724;53.546;9.974;2022-11-18T04:22:07;20.97;;;14.20;;
31061;SDS011;17724;53.546;9.974;2022-11-18T04:26:29;23.40;;;15.47;;
31061;SDS011;17724;53.546;9.974;2022-11-18T04:30:50;21.60;;;13.87;;
31061;SDS011;17724;53.546;9.974;2022-11-18T04:35:11;21.57;;;14.40;;
31061;SDS011;17724;53.546;9.974;2022-11-18T04:39:32;22.87;;;14.37;;
31061;SDS011;17724;53.546;9.974;2022-11-18T04:43:53;21.50;;;14.20;;
31061;SDS011;17724;53.546;9.974;2022-11-18T04:48:14;20.63;;;13.97;;
31061;SDS011;17724;53.546;9.974;2022-11-18T04:52:35;21.80;;;14.90;;
31061;SDS011;17724;53.546;9.974;2022-11-18T04:56:56;23.33;;;15.57;;
31061;SDS011;17724;53.546;9.974;2022-11-18T05:01:17;23.00;;;14.30;;
31061;SDS011;17724;53.546;9.974;2022-11-18T05:05:37;20.97;;;13.97;;
31061;SDS011;17724;53.546;9.974;2022-11-18T05:09:58;22.70;;;15.30;;
31061;SDS011;17724;53.546;9.974;2022-11-18T05:14:19;21.17;;;14.90;;
31061;SDS011;17724;53.546;9.974;2022-11-18T05:18:39;24.93;;;16.70;;
31061;SDS011;17724;53.546;9.974;2022-11-18T05:23:00;24.20;;;16.20;;
31061;SDS011;17724;53.546;9.974;2022-11-18T05:27:21;21.80;;;15.93;;
31061;SDS011;17724;53.546;9.974;2022-11-18T05:31:41;22.60;;;16.70;;
31061;SDS011;17724;53.546;9.974;2022-11-18T05:36:06;25.10;;;18.03;;
31061;SDS011;17724;53.546;9.974;2022-11-18T05:40:28;22.83;;;16.10;;
31061;SDS011;17724;53.546;9.974;2022-11-18T05:44:49;25.97;;;17.50;;
31061;SDS011;17724;53.546;9.974;2022-11-18T05:49:11;24.27;;;16.90;;
31061;SDS011;17724;53.546;9.974;2022-11-18T05:53:31;24.23;;;16.83;;
31061;SDS011;17724;53.546;9.974;2022-11-18T05:57:52;27.93;;;17.40;;
31061;SDS011;17724;53.546;9.974;2022-11-18T06:02:14;23.63;;;17.20;;
31061;SDS011;17724;53.546;9.974;2022-11-18T06:06:38;23.03;;;16.53;;
31061;SDS011;17724;53.546;9.974;2022-11-18T06:10:58;23.50;;;16.43;;
31061;SDS011;17724;53.546;9.974;2022-11-18T06:15:21;24.20;;;17.10;;
31061;SDS011;17724;53.546;9.974;2022-11-18T06:19:47;26.50;;;17.97;;
31061;SDS011;17724;53.546;9.974;2022-11-18T06:24:10;24.30;;;17.10;;
31061;SDS011;17724;53.546;9.974;2022-11-18T06:28:32;25.80;;;18.33;;
31061;SDS011;17724;53.546;9.974;2022-11-18T06:32:53;24.80;;;17.30;;
31061;SDS011;17724;53.546;9.974;2022-11-18T06:37:15;24.67;;;16.53;;
31061;SDS011;17724;53.546;9.974;2022-11-18T06:41:38;24.50;;;17.97;;
31061;SDS011;17724;53.546;9.974;2022-11-18T06:45:59;25.40;;;18.37;;
31061;SDS011;17724;53.546;9.974;2022-11-18T06:50:39;27.97;;;22.50;;
31061;SDS011;17724;53.546;9.974;2022-11-18T06:55:00;25.83;;;18.87;;
31061;SDS011;17724;53.546;9.974;2022-11-18T06:59:21;26.43;;;18.33;;
31061;SDS011;17724;53.546;9.974;2022-11-18T07:03:44;27.60;;;17.37;;
31061;SDS011;17724;53.546;9.974;2022-11-18T07:08:05;28.10;;;19.90;;
31061;SDS011;17724;53.546;9.974;2022-11-18T07:12:26;27.63;;;19.13;;
31061;SDS011;17724;53.546;9.974;2022-11-18T07:16:47;25.90;;;18.20;;
31061;SDS011;17724;53.546;9.974;2022-11-18T07:21:18;29.67;;;19.57;;
31061;SDS011;17724;53.546;9.974;2022-11-18T07:25:40;24.67;;;17.13;;
31061;SDS011;17724;53.546;9.974;2022-11-18T07:30:01;29.97;;;20.83;;
31061;SDS011;17724;53.546;9.974;2022-11-18T07:34:22;27.23;;;18.53;;
31061;SDS011;17724;53.546;9.974;2022-11-18T07:38:42;27.53;;;17.97;;
31061;SDS011;17724;53.546;9.974;2022-11-18T07:43:04;27.63;;;18.63;;
31061;SDS011;17724;53.546;9.974;2022-11-18T07:47:26;26.00;;;18.30;;
31061;SDS011;17724;53.546;9.974;2022-11-18T07:51:47;23.30;;;16.00;;
31061;SDS011;17724;53.546;9.974;2022-11-18T07:56:08;25.17;;;17.30;;
31061;SDS011;17724;53.546;9.974;2022-11-18T08:00:29;25.60;;;16.73;;
31061;SDS011;17724;53.546;9.974;2022-11-18T08:04:50;25.13;;;16.63;;
31061;SDS011;17724;53.546;9.974;2022-11-18T08:09:10;23.33;;;15.60;;
31061;SDS011;17724;53.546;9.974;2022-11-18T08:13:31;23.20;;;14.67;;
31061;SDS011;17724;53.546;9.974;2022-11-18T08:17:53;20.77;;;13.50;;
31061;SDS011;17724;53.546;9.974;2022-11-18T08:22:13;20.77;;;13.63;;
31061;SDS011;17724;53.546;9.974;2022-11-18T08:26:36;22.30;;;14.00;;
31061;SDS011;17724;53.546;9.974;2022-11-18T08:30:57;21.03;;;13.53;;
31061;SDS011;17724;53.546;9.974;2022-11-18T08:35:18;21.23;;;13.67;;
31061;SDS011;17724;53.546;9.974;2022-11-18T08:39:39;20.53;;;13.30;;
31061;SDS011;17724;53.546;9.974;2022-11-18T08:44:00;21.13;;;14.07;;
31061;SDS011;17724;53.546;9.974;2022-11-18T08:48:21;21.40;;;14.27;;
31061;SDS011;17724;53.546;9.974;2022-11-18T08:52:42;21.87;;;14.90;;
31061;SDS011;17724;53.546;9.974;2022-11-18T08:57:03;21.37;;;14.07;;
31061;SDS011;17724;53.546;9.974;2022-11-18T09:02:11;20.83;;;13.60;;
31061;SDS011;17724;53.546;9.974;2022-11-18T09:06:36;20.47;;;13.93;;
31061;SDS011;17724;53.546;9.974;2022-11-18T09:10:58;22.03;;;13.30;;
31061;SDS011;17724;53.546;9.974;2022-11-18T09:15:18;21.30;;;14.37;;
31061;SDS011;17724;53.546;9.974;2022-11-18T09:19:39;20.80;;;13.90;;
31061;SDS011;17724;53.546;9.974;2022-11-18T09:24:02;20.97;;;13.50;;
31061;SDS011;17724;53.546;9.974;2022-11-18T09:28:24;21.00;;;14.27;;
31061;SDS011;17724;53.546;9.974;2022-11-18T09:32:45;19.90;;;12.77;;
31061;SDS011;17724;53.546;9.974;2022-11-18T09:37:06;22.60;;;14.30;;
31061;SDS011;17724;53.546;9.974;2022-11-18T09:45:55;18.70;;;12.00;;
31061;SDS011;17724;53.546;9.974;2022-11-18T09:50:21;18.67;;;12.40;;
31061;SDS011;17724;53.546;9.974;2022-11-18T09:54:43;18.73;;;11.97;;
31061;SDS011;17724;53.546;9.974;2022-11-18T09:59:03;19.00;;;12.20;;
31061;SDS011;17724;53.546;9.974;2022-11-18T10:12:54;19.70;;;11.20;;
31061;SDS011;17724;53.546;9.974;2022-11-18T10:26:55;18.10;;;12.10;;
31061;SDS011;17724;53.546;9.974;2022-11-18T10:31:17;18.40;;;10.30;;
31061;SDS011;17724;53.546;9.974;2022-11-18T10:35:38;16.40;;;10.30;;
31061;SDS011;17724;53.546;9.974;2022-11-18T10:40:00;18.50;;;10.00;;
31061;SDS011;17724;53.546;9.974;2022-11-18T10:44:31;17.00;;;9.23;;
31061;SDS011;17724;53.546;9.974;2022-11-18T10:49:16;14.87;;;9.03;;
31061;SDS011;17724;53.546;9.974;2022-11-18T10:53:36;14.60;;;8.43;;
31061;SDS011;17724;53.546;9.974;2022-11-18T10:58:23;15.73;;;9.00;;
31061;SDS011;17724;53.546;9.974;2022-11-18T11:02:41;15.50;;;7.10;;
31061;SDS011;17724;53.546;9.974;2022-11-18T11:07:15;13.90;;;7.70;;
31061;SDS011;17724;53.546;9.974;2022-11-18T11:16:21;13.37;;;7.17;;
31061;SDS011;17724;53.546;9.974;2022-11-18T11:20:43;13.23;;;6.40;;
31061;SDS011;17724;53.546;9.974;2022-11-18T11:25:09;14.00;;;7.33;;
31061;SDS011;17724;53.546;9.974;2022-11-18T11:29:54;15.00;;;7.10;;
31061;SDS011;17724;53.546;9.974;2022-11-18T11:44:40;13.00;;;6.40;;
31061;SDS011;17724;53.546;9.974;2022-11-18T11:53:55;14.37;;;7.20;;
31061;SDS011;17724;53.546;9.974;2022-11-18T12:03:40;15.37;;;7.20;;
31061;SDS011;17724;53.546;9.974;2022-11-18T12:08:03;15.33;;;8.17;;
31061;SDS011;17724;53.546;9.974;2022-11-18T12:16:58;16.83;;;6.60;;
31061;SDS011;17724;53.546;9.974;2022-11-18T12:26:08;15.60;;;7.17;;
31061;SDS011;17724;53.546;9.974;2022-11-18T12:30:29;15.20;;;7.33;;
31061;SDS011;17724;53.546;9.974;2022-11-18T12:34:54;13.90;;;6.50;;
31061;SDS011;17724;53.546;9.974;2022-11-18T12:57:11;14.10;;;6.13;;
31061;SDS011;17724;53.546;9.974;2022-11-18T13:01:37;14.97;;;6.80;;
31061;SDS011;17724;53.546;9.974;2022-11-18T13:05:59;14.13;;;6.90;;
31061;SDS011;17724;53.546;9.974;2022-11-18T13:10:23;13.60;;;5.43;;
31061;SDS011;17724;53.546;9.974;2022-11-18T13:14:47;14.77;;;6.40;;
31061;SDS011;17724;53.546;9.974;2022-11-18T13:19:26;15.17;;;6.37;;
31061;SDS011;17724;53.546;9.974;2022-11-18T13:23:47;13.50;;;5.37;;
31061;SDS011;17724;53.546;9.974;2022-11-18T13:32:46;12.43;;;5.00;;
31061;SDS011;17724;53.546;9.974;2022-11-18T13:37:13;13.63;;;5.17;;
31061;SDS011;17724;53.546;9.974;2022-11-18T13:41:36;12.73;;;5.13;;
31061;SDS011;17724;53.546;9.974;2022-11-18T13:46:01;13.73;;;5.00;;
31061;SDS011;17724;53.546;9.974;2022-11-18T13:54:51;12.60;;;4.50;;
31061;SDS011;17724;53.546;9.974;2022-11-18T13:59:15;12.07;;;4.90;;
31061;SDS011;17724;53.546;9.974;2022-11-18T14:03:49;12.20;;;4.20;;
31061;SDS011;17724;53.546;9.974;2022-11-18T14:08:35;12.10;;;4.33;;
31061;SDS011;17724;53.546;9.974;2022-11-18T14:12:57;12.10;;;4.70;;
31061;SDS011;17724;53.546;9.974;2022-11-18T14:17:21;11.87;;;4.07;;
31061;SDS011;17724;53.546;9.974;2022-11-18T14:21:43;12.97;;;4.27;;
31061;SDS011;17724;53.546;9.974;2022-11-18T14:26:05;11.73;;;4.13;;
31061;SDS011;17724;53.546;9.974;2022-11-18T14:35:01;11.63;;;3.97;;
31061;SDS011;17724;53.546;9.974;2022-11-18T14:43:47;14.70;;;4.83;;
31061;SDS011;17724;53.546;9.974;2022-11-18T14:48:08;12.77;;;3.87;;
31061;SDS011;17724;53.546;9.974;2022-11-18T14:52:31;11.77;;;4.20;;
31061;SDS011;17724;53.546;9.974;2022-11-18T14:56:52;11.60;;;3.50;;
31061;SDS011;17724;53.546;9.974;2022-11-18T15:01:15;11.70;;;4.27;;
31061;SDS011;17724;53.546;9.974;2022-11-18T15:05:36;13.17;;;4.80;;
31061;SDS011;17724;53.546;9.974;2022-11-18T15:09:57;12.30;;;4.47;;
31061;SDS011;17724;53.546;9.974;2022-11-18T15:14:18;13.30;;;5.43;;
31061;SDS011;17724;53.546;9.974;2022-11-18T15:18:39;12.23;;;3.93;;
31061;SDS011;17724;53.546;9.974;2022-11-18T15:23:00;12.60;;;3.90;;
31061;SDS011;17724;53.546;9.974;2022-11-18T15:27:21;13.53;;;4.50;;
31061;SDS011;17724;53.546;9.974;2022-11-18T15:31:41;17.10;;;4.20;;
31061;SDS011;17724;53.546;9.974;2022-11-18T15:36:02;12.10;;;4.00;;
31061;SDS011;17724;53.546;9.974;2022-11-18T15:40:23;12.07;;;3.80;;
31061;SDS011;17724;53.546;9.974;2022-11-18T15:44:44;12.30;;;4.60;;
31061;SDS011;17724;53.546;9.974;2022-11-18T15:49:05;13.37;;;4.67;;
31061;SDS011;17724;53.546;9.974;2022-11-18T15:53:26;13.13;;;4.20;;
31061;SDS011;17724;53.546;9.974;2022-11-18T15:57:47;13.80;;;4.40;;
31061;SDS011;17724;53.546;9.974;2022-11-18T16:02:08;12.17;;;3.63;;
31061;SDS011;17724;53.546;9.974;2022-11-18T16:06:30;12.30;;;3.20;;
31061;SDS011;17724;53.546;9.974;2022-11-18T16:10:54;11.60;;;3.40;;
31061;SDS011;17724;53.546;9.974;2022-11-18T16:15:34;10.70;;;2.60;;
31061;SDS011;17724;53.546;9.974;2022-11-18T16:20:07;11.67;;;3.37;;
31061;SDS011;17724;53.546;9.974;2022-11-18T16:24:28;12.03;;;3.60;;
31061;SDS011;17724;53.546;9.974;2022-11-18T16:28:49;12.73;;;3.93;;
31061;SDS011;17724;53.546;9.974;2022-11-18T16:33:10;12.83;;;4.20;;
31061;SDS011;17724;53.546;9.974;2022-11-18T16:37:31;48.03;;;35.20;;
31061;SDS011;17724;53.546;9.974;2022-11-18T16:41:52;13.90;;;4.47;;
31061;SDS011;17724;53.546;9.974;2022-11-18T16:46:15;12.60;;;3.47;;
31061;SDS011;17724;53.546;9.974;2022-11-18T16:50:35;14.10;;;4.80;;
31061;SDS011;17724;53.546;9.974;2022-11-18T16:54:56;13.37;;;3.67;;
31061;SDS011;17724;53.546;9.974;2022-11-18T16:59:21;11.57;;;3.53;;
31061;SDS011;17724;53.546;9.974;2022-11-18T17:03:43;15.07;;;5.07;;
31061;SDS011;17724;53.546;9.974;2022-11-18T17:08:04;12.93;;;3.70;;
31061;SDS011;17724;53.546;9.974;2022-11-18T17:12:25;13.07;;;4.83;;
31061;SDS011;17724;53.546;9.974;2022-11-18T17:16:46;12.90;;;3.97;;
31061;SDS011;17724;53.546;9.974;2022-11-18T17:25:32;13.20;;;4.03;;
31061;SDS011;17724;53.546;9.974;2022-11-18T17:29:53;15.43;;;5.23;;
31061;SDS011;17724;53.546;9.974;2022-11-18T17:34:13;14.50;;;4.73;;
31061;SDS011;17724;53.546;9.974;2022-11-18T17:38:35;15.90;;;5.70;;
31061;SDS011;17724;53.546;9.974;2022-11-18T17:42:57;13.47;;;4.47;;
31061;SDS011;17724;53.546;9.974;2022-11-18T17:47:17;14.53;;;5.37;;
31061;SDS011;17724;53.546;9.974;2022-11-18T17:51:38;15.63;;;5.70;;
31061;SDS011;17724;53.546;9.974;2022-11-18T17:55:59;12.63;;;4.77;;
31061;SDS011;17724;53.546;9.974;2022-11-18T18:00:20;16.70;;;5.87;;
31061;SDS011;17724;53.546;9.974;2022-11-18T18:04:41;13.57;;;4.70;;
31061;SDS011;17724;53.546;9.974;2022-11-18T18:09:02;12.80;;;4.33;;
31061;SDS011;17724;53.546;9.974;2022-11-18T18:13:23;13.80;;;4.57;;
31061;SDS011;17724;53.546;9.974;2022-11-18T18:18:02;13.40;;;3.90;;
31061;SDS011;17724;53.546;9.974;2022-11-18T18:22:23;12.17;;;3.53;;
31061;SDS011;17724;53.546;9.974;2022-11-18T18:26:51;13.20;;;4.50;;
31061;SDS011;17724;53.546;9.974;2022-11-18T18:31:15;13.47;;;3.70;;
31061;SDS011;17724;53.546;9.974;2022-11-18T18:35:40;11.63;;;3.50;;
31061;SDS011;17724;53.546;9.974;2022-11-18T18:40:01;14.93;;;5.53;;
31061;SDS011;17724;53.546;9.974;2022-11-18T18:44:22;16.13;;;6.27;;
31061;SDS011;17724;53.546;9.974;2022-11-18T18:49:07;39.27;;;24.87;;
31061;SDS011;17724;53.546;9.974;2022-11-18T18:53:32;15.57;;;5.43;;
31061;SDS011;17724;53.546;9.974;2022-11-18T18:57:53;15.33;;;6.47;;
31061;SDS011;17724;53.546;9.974;2022-11-18T19:06:14;12.87;;;4.27;;
31061;SDS011;17724;53.546;9.974;2022-11-18T19:10:37;13.23;;;3.77;;
31061;SDS011;17724;53.546;9.974;2022-11-18T19:14:58;11.50;;;3.00;;
31061;SDS011;17724;53.546;9.974;2022-11-18T19:18:59;11.77;;;3.77;;
31061;SDS011;17724;53.546;9.974;2022-11-18T19:23:02;16.47;;;4.40;;
31061;SDS011;17724;53.546;9.974;2022-11-18T19:27:48;13.90;;;3.77;;
31061;SDS011;17724;53.546;9.974;2022-11-18T19:31:49;15.07;;;4.90;;
31061;SDS011;17724;53.546;9.974;2022-11-18T19:35:49;14.20;;;3.50;;
31061;SDS011;17724;53.546;9.974;2022-11-18T19:39:50;13.37;;;5.10;;
31061;SDS011;17724;53.546;9.974;2022-11-18T19:43:51;13.93;;;4.23;;
31061;SDS011;17724;53.546;9.974;2022-11-18T19:47:51;15.00;;;4.33;;
31061;SDS011;17724;53.546;9.974;2022-11-18T19:51:52;13.27;;;4.10;;
31061;SDS011;17724;53.546;9.974;2022-11-18T19:55:53;15.43;;;4.70;;
31061;SDS011;17724;53.546;9.974;2022-11-18T19:59:57;15.60;;;7.50;;
31061;SDS011;17724;53.546;9.974;2022-11-18T20:03:58;19.37;;;8.73;;
31061;SDS011;17724;53.546;9.974;2022-11-18T20:08:04;14.80;;;5.73;;
31061;SDS011;17724;53.546;9.974;2022-11-18T20:12:04;15.60;;;5.40;;
31061;SDS011;17724;53.546;9.974;2022-11-18T20:16:07;13.07;;;4.60;;
31061;SDS011;17724;53.546;9.974;2022-11-18T20:20:09;13.70;;;4.60;;
31061;SDS011;17724;53.546;9.974;2022-11-18T20:24:14;21.20;;;5.20;;
31061;SDS011;17724;53.546;9.974;2022-11-18T20:28:16;14.30;;;4.83;;
31061;SDS011;17724;53.546;9.974;2022-11-18T20:32:16;15.27;;;5.20;;
31061;SDS011;17724;53.546;9.974;2022-11-18T20:36:18;15.30;;;4.33;;
31061;SDS011;17724;53.546;9.974;2022-11-18T20:40:21;21.27;;;8.37;;
31061;SDS011;17724;53.546;9.974;2022-11-18T20:44:21;14.60;;;4.97;;
31061;SDS011;17724;53.546;9.974;2022-11-18T20:48:22;15.87;;;6.00;;
31061;SDS011;17724;53.546;9.974;2022-11-18T20:52:22;14.73;;;5.50;;
31061;SDS011;17724;53.546;9.974;2022-11-18T20:56:24;14.50;;;5.40;;
31061;SDS011;17724;53.546;9.974;2022-11-18T21:00:25;25.67;;;12.20;;
31061;SDS011;17724;53.546;9.974;2022-11-18T21:04:26;16.50;;;4.83;;
31061;SDS011;17724;53.546;9.974;2022-11-18T21:08:27;13.60;;;4.70;;
31061;SDS011;17724;53.546;9.974;2022-11-18T21:12:27;14.20;;;5.40;;
31061;SDS011;17724;53.546;9.974;2022-11-18T21:16:28;21.63;;;8.33;;
31061;SDS011;17724;53.546;9.974;2022-11-18T21:20:28;15.90;;;4.13;;
31061;SDS011;17724;53.546;9.974;2022-11-18T21:24:47;13.10;;;4.83;;
31061;SDS011;17724;53.546;9.974;2022-11-18T21:28:48;15.07;;;5.50;;
31061;SDS011;17724;53.546;9.974;2022-11-18T21:32:49;13.67;;;3.87;;
31061;SDS011;17724;53.546;9.974;2022-11-18T21:36:50;14.17;;;4.73;;
31061;SDS011;17724;53.546;9.974;2022-11-18T21:40:50;16.80;;;6.43;;
31061;SDS011;17724;53.546;9.974;2022-11-18T21:44:51;13.67;;;4.20;;
31061;SDS011;17724;53.546;9.974;2022-11-18T21:48:52;16.90;;;6.20;;
31061;SDS011;17724;53.546;9.974;2022-11-18T21:52:53;13.40;;;4.63;;
31061;SDS011;17724;53.546;9.974;2022-11-18T21:56:53;12.13;;;4.00;;
31061;SDS011;17724;53.546;9.974;2022-11-18T22:01:16;12.50;;;3.90;;
31061;SDS011;17724;53.546;9.974;2022-11-18T22:05:25;15.30;;;5.70;;
31061;SDS011;17724;53.546;9.974;2022-11-18T22:09:26;12.70;;;3.83;;
31061;SDS011;17724;53.546;9.974;2022-11-18T22:13:27;12.97;;;4.07;;
31061;SDS011;17724;53.546;9.974;2022-11-18T22:17:28;12.70;;;4.10;;
31061;SDS011;17724;53.546;9.974;2022-11-18T22:21:29;13.00;;;5.00;;
31061;SDS011;17724;53.546;9.974;2022-11-18T22:25:30;15.20;;;5.83;;
31061;SDS011;17724;53.546;9.974;2022-11-18T22:29:31;15.10;;;5.37;;
31061;SDS011;17724;53.546;9.974;2022-11-18T22:33:31;30.37;;;17.80;;
31061;SDS011;17724;53.546;9.974;2022-11-18T22:37:32;16.30;;;5.83;;
31061;SDS011;17724;53.546;9.974;2022-11-18T22:41:33;17.83;;;8.73;;
31061;SDS011;17724;53.546;9.974;2022-11-18T22:46:05;14.93;;;6.80;;
31061;SDS011;17724;53.546;9.974;2022-11-18T22:50:07;13.60;;;4.27;;
31061;SDS011;17724;53.546;9.974;2022-11-18T22:54:08;12.63;;;4.23;;
31061;SDS011;17724;53.546;9.974;2022-11-18T22:58:09;11.70;;;3.53;;
31061;SDS011;17724;53.546;9.974;2022-11-18T23:02:09;13.00;;;4.43;;
31061;SDS011;17724;53.546;9.974;2022-11-18T23:06:10;12.10;;;3.83;;
31061;SDS011;17724;53.546;9.974;2022-11-18T23:10:11;12.53;;;4.10;;
31061;SDS011;17724;53.546;9.974;2022-11-18T23:14:12;12.80;;;4.00;;
31061;SDS011;17724;53.546;9.974;2022-11-18T23:18:12;13.30;;;4.07;;
31061;SDS011;17724;53.546;9.974;2022-11-18T23:22:13;11.57;;;2.97;;
31061;SDS011;17724;53.546;9.974;2022-11-18T23:26:14;14.00;;;4.53;;
31061;SDS011;17724;53.546;9.974;2022-11-18T23:30:15;11.70;;;3.70;;
31061;SDS011;17724;53.546;9.974;2022-11-18T23:34:15;12.30;;;3.70;;
31061;SDS011;17724;53.546;9.974;2022-11-18T23:38:16;12.43;;;4.00;;
31061;SDS011;17724;53.546;9.974;2022-11-18T23:42:16;11.73;;;3.60;;
31061;SDS011;17724;53.546;9.974;2022-11-18T23:46:17;11.57;;;3.53;;
31061;SDS011;17724;53.546;9.974;2022-11-18T23:50:18;12.53;;;3.50;;
31061;SDS011;17724;53.546;9.974;2022-11-18T23:54:19;13.17;;;4.30;;
31061;SDS011;17724;53.546;9.974;2022-11-18T23:58:19;12.97;;;3.87;;
